aviador You're here:

KMCN Decoded Metar

MACON in GA, USA
Report Time2018-05-21 16:37:00
UTC Time2018-05-21 16:43:55
Flight Rules vfr VFR
Wind130° at 10 kt
W.Decomp.*RWY 13: 10.0 kt HW 0.5 kt RCW
RWY 05: 1.2 kt HW 9.9 kt RCW
W.Rank130° ranks 19
Current wind is above 130° avg. (5.3)
Visibility9999 m
Phenomena:N/A
Clouds:Scattered 019 Hf
Scattered 024 Hf
Broken 031 Hf
Expected CloudBase > 1,600 ft AGL from Temp-Dew spread
Ceiling3,100 ft
Temp25°C (ISA +11)
Dew Point21°C (79% RH)
QNH1021 hPa
Density Alt1,657 ft
Elevation358 ft
Report Wrong Elevation
Raw Report
KMCN 211637Z 13010KT 10SM SCT019 SCT024 BKN031 25/21 A3015 RMK AO2
T02500211=

Extra information for KMCN:More info

Metar Taf Metar & Taf Last 4 Metars F.Rules Stats Wind Profile Meteogram Temp Stats Airport Information Weather charts Add Link Nearby VenuesMetar ALERT Operation Metar Decoded Social comments

AIRNAV info for KMCN